LiveATC.Net - Listen to live air traffic control over the Internet!


ICAO: F57  IATA: F57   Airport: Jack Browns Seaplane Base
City: Winter Haven   State/Province: Florida
Country: United States   Continent: North America
KGIF METAR Weather: KGIF 032053Z AUTO 05009KT 10SM VCTS SCT039 BKN046 BKN055 21/18 A3005 RMK AO2 LTG DSNT ALQDS RAB34E44 SLP175 P0000 60010 T02060183 55011
F57 ADS-B Flight Tracking  (ADSBExchange)
F57 Flight Activity (FlightAware)

KGIF/F57 CTAF
Feed Status: UP   Listeners: 0
Listen in your browser - HTML5 player (in browser, HTML5)
Click here to listen with your own player (launches your MP3 player)
Archive Access: KGIF/F57 CTAF
FacilityFrequency
Winter Haven CTAF123.050
Winter Haven Temp. Tower (only during Sun 'n Fun)119.125

NOTICE

Unauthorized use prohibited. See LiveATC.net Terms of Service


Airport/ARTCC Code
Frequency Search
(e.g., 124.400, 128.75)
Site-wide search
 


Browse Feeds
Top 50 Feeds
HF Oceanic Feeds
Coverage Map
Bad Weather Areas

LiveATC FAQ

Increase Coverage

Contact LiveATC.net
Press Inquiries

LiveATC on iPhone
LiveATC on Android

LiveATC Mobile
(Mobile browser)

ATC Audio Archives
Interesting Recordings

LiveATC Forums


Home Page
About LiveATC.net


Terms of Use
Privacy Policy

AIRMETs/SIGMETs

FAA Airport Status
NAS Status
Arrival Demand


Server Software By:
Icecast.org
Liquidsoap